createdAt,value
2023-01-03T00:01:44.772Z,11.26
2023-01-03T00:06:50.867Z,11.23
2023-01-03T00:12:13.817Z,11.18
2023-01-03T00:17:19.844Z,11.10
2023-01-03T00:22:23.219Z,11.07
2023-01-03T00:27:27.054Z,11.08
2023-01-03T00:32:30.320Z,11.08
2023-01-03T00:37:33.460Z,11.07
2023-01-03T00:42:56.564Z,11.04
2023-01-03T00:47:59.679Z,11.00
2023-01-03T00:53:02.797Z,10.99
2023-01-03T00:58:05.896Z,11.04
2023-01-03T01:03:09.188Z,11.05
2023-01-03T01:08:12.851Z,11.05
2023-01-03T01:13:16.896Z,11.05
2023-01-03T01:18:20.067Z,11.05
2023-01-03T01:23:23.130Z,11.08
2023-01-03T01:28:26.179Z,11.16
2023-01-03T01:33:31.463Z,11.24
2023-01-03T01:38:35.020Z,11.31
2023-01-03T01:44:17.385Z,11.32
2023-01-03T01:49:24.927Z,11.32
2023-01-03T01:54:29.462Z,11.36
2023-01-03T01:59:32.601Z,11.43
2023-01-03T02:04:38.677Z,11.48
2023-01-03T02:09:41.882Z,11.50
2023-01-03T02:15:12.903Z,11.49
2023-01-03T02:20:40.975Z,11.46
2023-01-03T02:25:53.201Z,11.46
2023-01-03T02:31:14.723Z,11.47
2023-01-03T02:36:30.195Z,11.47
2023-01-03T02:41:46.651Z,11.45
2023-01-03T02:46:56.058Z,11.41
2023-01-03T02:52:03.320Z,11.36
2023-01-03T02:57:15.027Z,11.34
2023-01-03T03:02:21.463Z,11.36
2023-01-03T03:07:34.339Z,11.37
2023-01-03T03:12:59.247Z,11.33
2023-01-03T03:18:07.635Z,11.27
2023-01-03T03:23:32.609Z,11.24
2023-01-03T03:28:39.919Z,11.21
2023-01-03T03:34:11.732Z,11.19
2023-01-03T03:39:34.880Z,11.14
2023-01-03T03:45:01.627Z,11.05
2023-01-03T03:50:27.585Z,10.96
2023-01-03T03:56:04.134Z,10.91
2023-01-03T04:01:10.503Z,10.86
2023-01-03T04:06:20.916Z,10.81
2023-01-03T04:11:24.121Z,10.76
2023-01-03T04:16:27.359Z,10.76
2023-01-03T04:21:30.660Z,10.78
2023-01-03T04:26:33.901Z,10.75
2023-01-03T04:31:37.202Z,10.66
2023-01-03T04:36:40.375Z,10.56
2023-01-03T04:41:43.474Z,10.47
2023-01-03T04:46:52.546Z,10.42
2023-01-03T04:51:56.336Z,10.37
2023-01-03T04:56:59.448Z,10.31
2023-01-03T05:02:03.642Z,10.25
2023-01-03T05:07:08.261Z,10.21
2023-01-03T05:12:12.467Z,10.18
2023-01-03T05:17:15.700Z,10.14
2023-01-03T05:22:57.453Z,10.05
2023-01-03T05:28:01.941Z,9.95
2023-01-03T05:33:05.128Z,9.90
2023-01-03T05:38:08.339Z,9.84
2023-01-03T05:43:11.674Z,9.79
2023-01-03T05:48:14.821Z,9.71
2023-01-03T05:53:18.383Z,9.59
2023-01-03T05:58:21.608Z,9.43
2023-01-03T06:03:24.918Z,9.33
2023-01-03T06:08:28.094Z,9.29
2023-01-03T06:13:31.278Z,9.26
2023-01-03T06:18:35.969Z,9.20
2023-01-03T06:23:39.181Z,9.13
2023-01-03T06:28:42.444Z,9.07
2023-01-03T06:33:45.595Z,9.06
2023-01-03T06:38:49.221Z,9.12
2023-01-03T06:43:54.682Z,9.17
2023-01-03T06:49:18.166Z,9.17
2023-01-03T06:54:24.384Z,9.16
2023-01-03T06:59:34.894Z,9.12
2023-01-03T07:04:38.056Z,9.13
2023-01-03T07:09:41.199Z,9.15
2023-01-03T07:14:44.404Z,9.22
2023-01-03T07:19:47.518Z,9.22
2023-01-03T07:24:50.612Z,9.20
2023-01-03T07:29:53.747Z,9.21
2023-01-03T07:34:59.603Z,9.25
2023-01-03T07:40:02.755Z,9.30
2023-01-03T07:45:06.748Z,9.34
2023-01-03T07:50:10.069Z,9.38
2023-01-03T07:55:13.276Z,9.44
2023-01-03T08:00:16.887Z,9.53
2023-01-03T08:05:24.189Z,9.61
2023-01-03T08:10:45.974Z,9.65
2023-01-03T08:15:52.510Z,9.66
2023-01-03T08:20:57.511Z,9.70
2023-01-03T08:26:05.280Z,9.78
2023-01-03T08:31:15.408Z,9.81
2023-01-03T08:36:54.268Z,9.81
2023-01-03T08:42:17.748Z,9.76
2023-01-03T08:47:21.648Z,9.76
2023-01-03T08:52:27.884Z,9.83
2023-01-03T08:57:35.079Z,9.91
2023-01-03T09:02:38.424Z,9.95
2023-01-03T09:07:42.647Z,9.96
2023-01-03T09:12:45.814Z,9.97
2023-01-03T09:17:49.588Z,10.04
2023-01-03T09:22:52.817Z,10.04
2023-01-03T09:27:57.167Z,10.03
2023-01-03T09:33:00.262Z,10.05
2023-01-03T09:38:03.936Z,10.07
2023-01-03T09:43:13.927Z,10.03
2023-01-03T09:48:25.648Z,10.03
2023-01-03T09:53:57.087Z,10.03
2023-01-03T09:59:35.642Z,9.94
2023-01-03T10:05:03.695Z,9.89
2023-01-03T10:10:37.492Z,9.86
2023-01-03T10:15:58.932Z,9.86
2023-01-03T10:21:09.778Z,9.87
2023-01-03T10:26:13.388Z,9.76
2023-01-03T10:31:27.847Z,9.66
2023-01-03T10:36:30.982Z,9.67
2023-01-03T10:41:40.840Z,9.60
2023-01-03T10:46:51.355Z,9.53
2023-01-03T10:52:01.201Z,9.48
2023-01-03T10:57:05.724Z,9.52
2023-01-03T11:02:09.154Z,9.59
2023-01-03T11:07:17.141Z,9.62
2023-01-03T11:12:41.842Z,9.66
2023-01-03T11:17:59.606Z,9.54
2023-01-03T11:23:15.906Z,9.38
2023-01-03T11:28:49.984Z,9.30
2023-01-03T11:34:21.466Z,9.25
2023-01-03T11:39:46.230Z,9.19
2023-01-03T11:45:08.407Z,9.17
2023-01-03T11:50:11.623Z,9.10
2023-01-03T11:55:35.349Z,9.02
2023-01-03T12:00:50.799Z,9.03
2023-01-03T12:06:28.320Z,9.06
2023-01-03T12:11:58.071Z,9.12
2023-01-03T12:17:06.014Z,9.00
2023-01-03T12:22:36.648Z,8.82
2023-01-03T12:27:47.214Z,8.70
2023-01-03T12:33:05.718Z,8.57
2023-01-03T12:38:10.800Z,8.44
2023-01-03T12:43:20.395Z,8.36
2023-01-03T12:48:27.073Z,8.34
2023-01-03T12:53:34.891Z,8.42
2023-01-03T12:58:57.104Z,8.41
2023-01-03T13:04:07.688Z,8.43
2023-01-03T13:09:28.172Z,8.42
2023-01-03T13:15:07.661Z,8.33
2023-01-03T13:20:32.680Z,8.26
2023-01-03T13:25:42.251Z,8.15
2023-01-03T13:30:46.712Z,8.03
2023-01-03T13:35:50.614Z,7.98
2023-01-03T13:41:19.104Z,7.97
2023-01-03T13:46:33.403Z,7.96
2023-01-03T13:51:40.181Z,7.88
2023-01-03T13:56:44.020Z,7.79
2023-01-03T14:02:06.904Z,7.70
2023-01-03T14:07:48.082Z,7.63
2023-01-03T14:13:14.122Z,7.53
2023-01-03T14:18:26.310Z,7.44
2023-01-03T14:29:00.824Z,7.35
2023-01-03T14:34:05.762Z,7.33
2023-01-03T14:39:22.756Z,7.26
2023-01-03T14:44:26.348Z,7.17
2023-01-03T14:49:50.443Z,7.07
2023-01-03T14:55:03.473Z,6.99
2023-01-03T15:00:16.016Z,6.92
2023-01-03T15:05:30.918Z,6.87
2023-01-03T15:10:44.950Z,6.87
2023-01-03T15:15:55.250Z,6.87
2023-01-03T15:21:01.526Z,6.85
2023-01-03T15:26:08.261Z,6.77
2023-01-03T15:31:24.435Z,6.68
2023-01-03T15:36:31.811Z,6.60
2023-01-03T15:47:31.828Z,6.57
2023-01-03T15:52:41.598Z,6.55
2023-01-03T15:57:51.307Z,6.53
2023-01-03T16:02:56.894Z,6.49
2023-01-03T16:08:00.944Z,6.45
2023-01-03T16:13:04.274Z,6.39
2023-01-03T16:18:07.327Z,6.35
2023-01-03T16:23:30.711Z,6.33
2023-01-03T16:29:16.754Z,6.31
2023-01-03T16:34:33.663Z,6.29
2023-01-03T16:40:07.084Z,6.25
2023-01-03T16:45:13.788Z,6.22
2023-01-03T16:50:44.267Z,6.18
2023-01-03T16:56:11.683Z,6.17
2023-01-03T17:07:09.921Z,6.17
2023-01-03T17:12:22.263Z,6.17
2023-01-03T17:17:25.650Z,6.12
2023-01-03T17:22:28.866Z,6.06
2023-01-03T17:27:33.514Z,5.98
2023-01-03T17:32:37.055Z,5.90
2023-01-03T17:37:58.301Z,5.91
2023-01-03T17:43:03.612Z,5.98
2023-01-03T17:48:31.670Z,6.01
2023-01-03T17:53:35.040Z,6.02
2023-01-03T17:58:39.492Z,5.96
2023-01-03T18:03:42.751Z,5.89
2023-01-03T18:08:47.826Z,5.88
2023-01-03T18:13:51.088Z,5.91
2023-01-03T18:18:54.204Z,5.95
2023-01-03T18:24:01.561Z,5.98
2023-01-03T18:29:06.239Z,5.99
2023-01-03T18:34:13.623Z,5.96
2023-01-03T18:39:48.749Z,5.93
2023-01-03T18:44:51.979Z,5.93
2023-01-03T18:49:55.115Z,5.92
2023-01-03T18:54:58.470Z,5.96
2023-01-03T19:00:01.666Z,5.95
2023-01-03T19:05:05.237Z,5.90
2023-01-03T19:10:24.403Z,5.87
2023-01-03T19:15:29.549Z,5.83
2023-01-03T19:20:32.882Z,5.81
2023-01-03T19:25:35.999Z,5.83
2023-01-03T19:30:44.531Z,5.87
2023-01-03T19:35:49.134Z,5.87
2023-01-03T19:40:52.338Z,5.83
2023-01-03T19:45:55.482Z,5.78
2023-01-03T19:50:58.616Z,5.75
2023-01-03T19:56:03.055Z,5.75
2023-01-03T20:01:06.785Z,5.80
2023-01-03T20:06:13.917Z,5.83
2023-01-03T20:11:23.065Z,5.85
2023-01-03T20:16:28.668Z,5.79
2023-01-03T20:21:32.223Z,5.71
2023-01-03T20:27:44.461Z,5.64
2023-01-03T20:33:25.168Z,5.57
2023-01-03T20:38:28.379Z,5.60
2023-01-03T20:43:31.654Z,5.61
2023-01-03T20:48:34.890Z,5.60
2023-01-03T20:53:42.703Z,5.58
2023-01-03T20:59:19.708Z,5.58
2023-01-03T21:04:44.978Z,5.58
2023-01-03T21:10:10.315Z,5.55
2023-01-03T21:15:16.302Z,5.57
2023-01-03T21:20:23.028Z,5.62
2023-01-03T21:25:35.146Z,5.66
2023-01-03T21:31:49.043Z,5.68
2023-01-03T21:37:59.401Z,5.65
2023-01-03T21:44:21.060Z,5.63
2023-01-03T21:49:45.439Z,5.60
2023-01-03T21:55:03.886Z,5.61
2023-01-03T22:13:01.248Z,5.71
2023-01-03T22:18:20.091Z,5.67
2023-01-03T22:23:36.249Z,5.64
2023-01-03T22:28:46.739Z,5.59
2023-01-03T22:33:50.438Z,5.50
2023-01-03T22:38:53.591Z,5.48
2023-01-03T22:44:02.464Z,5.50
2023-01-03T22:49:05.564Z,5.52
2023-01-03T22:54:08.659Z,5.51
2023-01-03T22:59:11.898Z,5.49
2023-01-03T23:04:15.163Z,5.46
2023-01-03T23:09:18.413Z,5.41
2023-01-03T23:14:23.421Z,5.36
2023-01-03T23:19:27.421Z,5.32
2023-01-03T23:24:30.862Z,5.33
2023-01-03T23:29:34.084Z,5.33
2023-01-03T23:34:37.188Z,5.27
2023-01-03T23:39:40.474Z,5.20
2023-01-03T23:44:43.655Z,5.12
2023-01-03T23:49:46.816Z,5.05
2023-01-03T23:54:53.461Z,4.95
